Time;durP1;ratioP1;P1;durP2;ratioP2;P2;SDS_P1;SDS_P2;PMS_P1;PMS_P2;Temp;Humidity;BMP_temperature;BMP_pressure;BME280_temperature;BME280_humidity;BME280_pressure;Samples;Min_cycle;Max_cycle;Signal;HPM_P1;HPM_P2
2023/03/26 00:01:06;;;;;;;23.40;3.20;;;;;;;7.21;100.00;100492.19;4946225;28;20035;-75
2023/03/26 00:03:34;;;;;;;41.70;6.32;;;;;;;7.09;100.00;100500.25;4937315;28;20035;-76
2023/03/26 00:06:09;;;;;;;30.48;3.90;;;;;;;7.16;100.00;100493.56;4940145;28;20031;-75
2023/03/26 00:08:36;;;;;;;26.17;3.85;;;;;;;7.25;100.00;100494.47;4937778;28;20153;-74
2023/03/26 00:11:04;;;;;;;32.97;5.10;;;;;;;7.15;100.00;100491.94;4950754;28;20494;-75
2023/03/26 00:13:29;;;;;;;22.52;4.07;;;;;;;7.02;100.00;100497.41;4942778;28;20031;-75
2023/03/26 00:15:55;;;;;;;33.83;3.72;;;;;;;7.02;100.00;100498.19;4944646;28;20037;-75
2023/03/26 00:18:23;;;;;;;28.77;3.90;;;;;;;6.98;100.00;100496.06;4955810;28;20040;-75
2023/03/26 00:20:49;;;;;;;27.60;3.65;;;;;;;7.11;100.00;100498.34;4928148;28;20114;-77
2023/03/26 00:23:15;;;;;;;25.75;4.30;;;;;;;6.99;100.00;100492.53;4951111;28;20039;-75
2023/03/26 00:25:42;;;;;;;26.52;3.85;;;;;;;6.94;100.00;100489.56;4943550;28;20040;-75
2023/03/26 00:28:08;;;;;;;25.92;4.13;;;;;;;6.88;100.00;100496.09;4945476;28;20039;-75
2023/03/26 00:30:34;;;;;;;33.05;4.35;;;;;;;6.81;100.00;100488.09;4965204;28;20547;-75
2023/03/26 00:33:01;;;;;;;32.08;3.95;;;;;;;6.84;100.00;100492.16;4958026;28;20126;-75
2023/03/26 00:35:28;;;;;;;27.65;3.70;;;;;;;6.83;100.00;100487.94;4950032;28;20042;-75
2023/03/26 00:37:54;;;;;;;39.30;5.20;;;;;;;6.85;100.00;100493.78;4948040;28;20035;-75
2023/03/26 00:40:19;;;;;;;31.08;3.58;;;;;;;6.92;100.00;100487.13;4934394;28;20609;-75
2023/03/26 00:42:45;;;;;;;32.53;4.45;;;;;;;6.87;100.00;100475.59;4948775;28;20046;-75
2023/03/26 00:45:10;;;;;;;19.90;4.00;;;;;;;6.82;100.00;100478.59;4927039;28;20047;-74
2023/03/26 00:47:36;;;;;;;32.80;3.92;;;;;;;6.79;100.00;100466.78;4947208;28;20273;-75
2023/03/26 00:50:03;;;;;;;26.80;4.07;;;;;;;6.80;100.00;100471.00;4988483;28;20033;-75
2023/03/26 00:52:29;;;;;;;25.70;4.35;;;;;;;6.80;100.00;100468.44;4942201;28;20056;-75
2023/03/26 00:54:54;;;;;;;24.15;3.50;;;;;;;6.74;100.00;100471.56;4946866;28;21406;-75
2023/03/26 00:57:21;;;;;;;27.95;3.80;;;;;;;6.81;100.00;100470.03;4925095;28;20539;-74
2023/03/26 00:59:48;;;;;;;26.15;4.07;;;;;;;6.85;100.00;100465.41;5020356;28;20493;-75
2023/03/26 01:02:19;;;;;;;28.98;4.32;;;;;;;6.80;100.00;100468.44;5010690;28;20047;-75
2023/03/26 01:04:56;;;;;;;40.83;6.95;;;;;;;6.86;100.00;100463.69;4942344;28;20031;-75
2023/03/26 01:07:27;;;;;;;38.33;5.55;;;;;;;6.90;100.00;100459.88;4940056;28;20102;-75
2023/03/26 01:09:56;;;;;;;36.83;6.22;;;;;;;6.87;100.00;100455.78;4917746;28;20039;-75
2023/03/26 01:12:26;;;;;;;30.17;4.53;;;;;;;6.83;100.00;100450.09;4938869;28;20023;-74
2023/03/26 01:14:55;;;;;;;20.88;4.68;;;;;;;6.80;100.00;100442.66;4956563;28;20118;-74
2023/03/26 01:17:22;;;;;;;30.88;5.70;;;;;;;6.81;100.00;100436.53;4998085;28;20028;-75
2023/03/26 01:20:12;;;;;;;22.88;4.50;;;;;;;6.93;100.00;100436.38;5006890;28;20034;-75
2023/03/26 01:22:52;;;;;;;30.17;5.07;;;;;;;6.85;100.00;100426.75;4929273;28;20643;-75
2023/03/26 01:25:22;;;;;;;27.98;3.47;;;;;;;6.86;100.00;100423.25;4923415;28;20054;-74
2023/03/26 01:27:50;;;;;;;26.67;4.20;;;;;;;6.74;100.00;100422.59;4944167;28;20027;-74
2023/03/26 01:30:41;;;;;;;25.17;4.22;;;;;;;6.70;100.00;100417.84;4922789;28;20491;-74
2023/03/26 01:33:29;;;;;;;31.58;4.88;;;;;;;6.67;100.00;100424.13;4949081;28;20089;-75
2023/03/26 01:36:39;;;;;;;33.75;3.95;;;;;;;6.61;100.00;100411.78;4950181;28;20053;-75
2023/03/26 01:39:18;;;;;;;28.35;4.88;;;;;;;6.57;100.00;100398.38;4978460;28;20053;-74
2023/03/26 01:41:47;;;;;;;25.85;3.67;;;;;;;6.56;100.00;100396.75;4940139;28;20523;-75
2023/03/26 01:44:42;;;;;;;31.92;4.47;;;;;;;6.55;100.00;100402.03;4957876;28;20031;-75
2023/03/26 01:47:09;;;;;;;25.85;4.15;;;;;;;6.52;100.00;100392.03;4952003;28;20107;-75
2023/03/26 01:49:35;;;;;;;29.70;3.80;;;;;;;6.49;100.00;100392.28;4967604;28;20086;-75
2023/03/26 01:52:01;;;;;;;22.92;3.72;;;;;;;6.41;100.00;100387.84;4947127;28;20113;-75
2023/03/26 01:54:30;;;;;;;23.45;3.80;;;;;;;6.42;100.00;100389.44;4947114;28;20644;-75
2023/03/26 01:57:07;;;;;;;33.33;3.85;;;;;;;6.38;100.00;100386.31;4944846;28;20122;-75
2023/03/26 01:59:42;;;;;;;37.47;5.13;;;;;;;6.34;100.00;100384.19;4946229;28;20125;-76
2023/03/26 02:02:41;;;;;;;26.77;4.03;;;;;;;6.29;100.00;100382.03;4944153;28;20050;-75
2023/03/26 02:05:16;;;;;;;33.25;3.35;;;;;;;6.26;100.00;100379.72;4980975;28;20074;-75
2023/03/26 02:07:49;;;;;;;24.48;3.83;;;;;;;6.22;100.00;100373.22;4942086;28;20066;-75
2023/03/26 02:10:20;;;;;;;24.35;3.28;;;;;;;6.17;100.00;100376.19;4957549;28;20043;-75
2023/03/26 02:12:45;;;;;;;23.50;3.65;;;;;;;6.22;100.00;100365.50;4946711;28;20177;-76
2023/03/26 02:15:12;;;;;;;29.25;3.05;;;;;;;6.29;100.00;100365.75;4946520;28;20125;-75
2023/03/26 02:17:39;;;;;;;27.15;3.50;;;;;;;6.28;100.00;100366.72;4946102;28;20035;-75
2023/03/26 02:20:09;;;;;;;38.80;4.65;;;;;;;6.21;100.00;100369.81;4930608;28;20078;-75
2023/03/26 02:22:44;;;;;;;23.92;3.25;;;;;;;6.19;100.00;100360.63;4969179;28;20374;-76
2023/03/26 02:25:14;;;;;;;20.08;3.97;;;;;;;6.22;100.00;100352.63;4969038;28;20039;-76
2023/03/26 02:27:40;;;;;;;35.03;4.25;;;;;;;6.20;100.00;100341.66;4946548;28;20028;-76
2023/03/26 02:30:14;;;;;;;21.85;4.25;;;;;;;6.31;100.00;100338.94;4970256;28;20037;-76
2023/03/26 02:32:42;;;;;;;25.50;3.53;;;;;;;6.28;100.00;100334.03;4971141;28;20034;-76
2023/03/26 02:35:10;;;;;;;17.98;3.58;;;;;;;6.19;100.00;100327.16;4951227;28;20047;-75
2023/03/26 02:37:37;;;;;;;21.33;3.00;;;;;;;6.15;100.00;100320.66;4948138;28;20047;-76
2023/03/26 02:40:11;;;;;;;22.58;3.88;;;;;;;6.20;100.00;100310.75;5026435;28;20134;-76
2023/03/26 02:42:40;;;;;;;23.58;2.63;;;;;;;6.24;100.00;100312.91;4929945;28;20024;-76
2023/03/26 02:45:06;;;;;;;16.77;3.88;;;;;;;6.21;100.00;100307.22;4966729;28;20030;-75
2023/03/26 02:47:50;;;;;;;23.77;2.58;;;;;;;6.29;100.00;100302.22;4943735;28;20046;-75
2023/03/26 02:50:43;;;;;;;20.67;2.92;;;;;;;6.22;100.00;100304.50;4949635;28;20070;-75
2023/03/26 02:53:29;;;;;;;27.02;3.80;;;;;;;6.22;100.00;100298.56;4968621;28;20123;-76
2023/03/26 02:56:11;;;;;;;28.50;3.38;;;;;;;6.20;100.00;100297.91;4942937;28;20089;-76
2023/03/26 02:58:47;;;;;;;25.60;3.60;;;;;;;6.26;100.00;100292.19;5023517;28;23051;-77
2023/03/26 03:01:17;;;;;;;32.22;3.45;;;;;;;6.29;100.00;100291.91;4935684;28;20041;-76
2023/03/26 03:03:50;;;;;;;28.40;3.60;;;;;;;6.26;100.00;100288.81;4932924;28;20031;-75
2023/03/26 03:06:44;;;;;;;19.25;2.65;;;;;;;6.21;100.00;100276.31;4954055;28;20469;-75
2023/03/26 03:09:11;;;;;;;24.50;4.22;;;;;;;6.36;100.00;100271.53;4959873;28;20035;-75
2023/03/26 03:11:38;;;;;;;28.02;3.40;;;;;;;6.36;100.00;100269.75;4947404;28;20517;-75
2023/03/26 03:14:04;;;;;;;18.15;4.22;;;;;;;6.30;100.00;100264.38;4950902;28;20028;-75
2023/03/26 03:16:32;;;;;;;15.95;3.08;;;;;;;6.25;100.00;100269.94;4958019;28;20039;-76
2023/03/26 03:19:07;;;;;;;21.00;3.10;;;;;;;6.27;100.00;100259.50;4956420;28;20054;-76
2023/03/26 03:21:40;;;;;;;22.07;2.87;;;;;;;6.27;100.00;100259.50;4931363;28;20032;-76
2023/03/26 03:24:07;;;;;;;21.27;3.38;;;;;;;6.27;100.00;100257.72;4943870;28;20057;-75
2023/03/26 03:26:36;;;;;;;21.52;2.97;;;;;;;6.27;100.00;100259.50;4931774;28;20046;-75
2023/03/26 03:29:13;;;;;;;18.10;2.80;;;;;;;6.23;100.00;100249.50;4933743;28;20062;-76
2023/03/26 03:31:40;;;;;;;26.95;5.55;;;;;;;6.23;100.00;100249.50;4932242;28;20031;-75
2023/03/26 03:34:13;;;;;;;18.05;2.80;;;;;;;6.30;100.00;100243.78;4957313;28;20061;-76
2023/03/26 03:36:47;;;;;;;24.50;4.68;;;;;;;6.26;100.00;100242.44;4945560;28;20042;-76
2023/03/26 03:39:26;;;;;;;22.35;3.88;;;;;;;6.33;100.00;100243.47;4934308;28;20028;-76
2023/03/26 03:41:52;;;;;;;17.67;2.50;;;;;;;6.30;100.00;100238.63;4944666;28;20104;-76
2023/03/26 03:44:18;;;;;;;17.92;2.42;;;;;;;6.29;100.00;100234.41;4930595;28;20486;-75
2023/03/26 03:46:44;;;;;;;14.55;3.17;;;;;;;6.28;100.00;100240.53;4942796;28;20039;-76
2023/03/26 03:49:10;;;;;;;25.25;2.67;;;;;;;6.25;100.00;100239.03;4919438;28;20028;-75
2023/03/26 03:51:36;;;;;;;12.57;2.03;;;;;;;6.27;100.00;100228.59;4945615;28;20041;-76
2023/03/26 03:54:05;;;;;;;22.08;3.13;;;;;;;6.33;100.00;100226.28;4941810;28;20042;-75
2023/03/26 03:56:47;;;;;;;24.50;3.67;;;;;;;6.30;100.00;100228.34;4943916;28;20122;-76
2023/03/26 03:59:25;;;;;;;17.67;3.33;;;;;;;6.31;100.00;100228.19;5017796;28;20470;-75
2023/03/26 04:01:51;;;;;;;17.95;2.78;;;;;;;6.32;100.00;100209.19;4948345;28;20035;-75
2023/03/26 04:04:27;;;;;;;17.48;3.45;;;;;;;6.29;100.00;100214.66;5023359;28;20197;-75
2023/03/26 04:07:01;;;;;;;18.65;2.85;;;;;;;6.31;100.00;100206.75;5025732;28;20089;-76
2023/03/26 04:09:38;;;;;;;17.27;3.30;;;;;;;6.29;100.00;100208.66;5023844;28;20031;-75
2023/03/26 04:12:11;;;;;;;12.63;2.20;;;;;;;6.29;100.00;100206.94;4929682;28;20574;-76
2023/03/26 04:15:00;;;;;;;14.60;2.03;;;;;;;6.28;100.00;100202.72;4924907;28;20047;-75
2023/03/26 04:17:26;;;;;;;21.33;3.22;;;;;;;6.27;100.00;100190.78;4941405;28;20448;-75
2023/03/26 04:19:54;;;;;;;22.23;2.67;;;;;;;6.29;100.00;100191.47;4932429;28;20114;-75
2023/03/26 04:22:23;;;;;;;14.85;2.50;;;;;;;6.28;100.00;100187.28;4930638;28;20505;-75
2023/03/26 04:24:55;;;;;;;15.60;3.17;;;;;;;6.28;100.00;100171.03;4946514;28;20038;-75
2023/03/26 04:27:30;;;;;;;13.00;2.00;;;;;;;6.28;100.00;100160.72;4976767;28;20588;-76
2023/03/26 04:30:14;;;;;;;16.02;2.53;;;;;;;6.30;100.00;100163.97;4928039;28;20039;-75
2023/03/26 04:32:41;;;;;;;24.35;3.08;;;;;;;6.29;100.00;100160.59;4940131;28;20532;-75
2023/03/26 04:35:11;;;;;;;17.70;2.28;;;;;;;6.30;100.00;100151.88;4927012;28;20089;-76
2023/03/26 04:37:39;;;;;;;15.43;2.20;;;;;;;6.30;100.00;100151.88;4925124;28;20059;-75
2023/03/26 04:40:23;;;;;;;14.65;2.03;;;;;;;6.31;100.00;100134.66;4951780;28;20105;-75
2023/03/26 04:42:58;;;;;;;15.52;2.55;;;;;;;6.29;100.00;100139.97;5020722;28;20089;-75
2023/03/26 04:45:46;;;;;;;14.80;2.38;;;;;;;6.28;100.00;100134.97;4953326;28;20035;-75
2023/03/26 04:48:13;;;;;;;14.52;2.88;;;;;;;6.27;100.00;100133.34;4938491;28;20063;-75
2023/03/26 04:50:44;;;;;;;11.68;1.85;;;;;;;6.24;100.00;100126.72;4943982;28;20123;-75
2023/03/26 04:53:14;;;;;;;12.50;2.47;;;;;;;6.23;100.00;100130.25;4939916;28;20032;-75
2023/03/26 04:56:14;;;;;;;16.63;3.13;;;;;;;6.23;100.00;100138.78;4933809;28;20081;-75
2023/03/26 04:58:59;;;;;;;7.07;2.00;;;;;;;6.22;100.00;100136.34;4951228;28;20072;-75
2023/03/26 05:01:27;;;;;;;18.45;3.47;;;;;;;6.23;100.00;100135.38;4945331;28;20039;-75
2023/03/26 05:03:53;;;;;;;9.27;3.13;;;;;;;6.23;100.00;100132.81;4946097;28;20050;-75
2023/03/26 05:06:20;;;;;;;18.13;2.70;;;;;;;6.21;100.00;100132.94;4950837;28;20033;-75
2023/03/26 05:08:46;;;;;;;13.35;1.92;;;;;;;6.21;100.00;100124.44;4929634;28;20031;-75
2023/03/26 05:11:24;;;;;;;16.15;2.70;;;;;;;6.19;100.00;100124.56;4944988;28;20032;-75
2023/03/26 05:13:49;;;;;;;13.00;2.42;;;;;;;6.20;100.00;100126.19;4957212;28;20043;-75
2023/03/26 05:16:16;;;;;;;15.30;2.28;;;;;;;6.27;100.00;100125.63;4953965;28;20570;-75
2023/03/26 05:18:50;;;;;;;19.15;3.33;;;;;;;6.26;100.00;100117.09;4995425;28;20039;-75
2023/03/26 05:21:17;;;;;;;16.48;3.10;;;;;;;6.26;100.00;100118.84;5011528;28;20043;-75
2023/03/26 05:23:42;;;;;;;18.33;2.28;;;;;;;6.26;100.00;100113.72;4941125;28;20029;-75
2023/03/26 05:26:14;;;;;;;11.23;2.60;;;;;;;6.21;100.00;100112.34;4946524;28;20042;-75
2023/03/26 05:28:40;;;;;;;19.77;2.95;;;;;;;6.30;100.00;100099.59;4965782;28;20027;-75
2023/03/26 05:31:29;;;;;;;15.98;3.40;;;;;;;6.24;100.00;100091.47;4991379;28;20121;-75
2023/03/26 05:33:59;;;;;;;10.30;3.25;;;;;;;6.20;100.00;100089.34;4972904;28;20112;-75
2023/03/26 05:36:24;;;;;;;12.63;3.13;;;;;;;6.20;100.00;100079.06;4936284;28;20023;-75
2023/03/26 05:39:07;;;;;;;12.25;2.08;;;;;;;6.44;100.00;100078.47;4988613;28;20406;-75
2023/03/26 05:41:51;;;;;;;20.35;2.95;;;;;;;6.47;100.00;100078.19;4953103;28;20050;-75
2023/03/26 05:44:18;;;;;;;16.20;4.20;;;;;;;6.47;100.00;100064.50;5011019;28;20031;-75
2023/03/26 05:46:44;;;;;;;21.48;3.03;;;;;;;6.49;100.00;100062.59;4974500;28;20510;-75
2023/03/26 05:49:17;;;;;;;17.88;3.53;;;;;;;6.46;100.00;100048.25;4946845;28;20046;-75
2023/03/26 05:51:42;;;;;;;16.23;2.75;;;;;;;6.40;100.00;100044.50;4944152;28;20035;-74
2023/03/26 05:54:32;;;;;;;17.20;2.35;;;;;;;6.48;100.00;100041.19;4941563;28;20031;-76
2023/03/26 05:57:17;;;;;;;18.48;3.13;;;;;;;6.39;100.00;100036.91;5002163;28;20054;-75
2023/03/26 06:00:17;;;;;;;11.18;2.50;;;;;;;6.38;100.00;100046.38;4957020;28;20047;-75
2023/03/26 06:02:43;;;;;;;20.17;2.92;;;;;;;6.41;100.00;100029.84;4958301;28;20027;-75
2023/03/26 06:05:36;;;;;;;20.63;3.47;;;;;;;6.42;100.00;100024.56;4957189;28;20042;-75
2023/03/26 06:08:09;;;;;;;11.48;2.53;;;;;;;6.43;100.00;100026.16;4945241;28;20060;-75
2023/03/26 06:10:38;;;;;;;15.98;2.55;;;;;;;6.42;100.00;100021.16;4945377;28;20063;-75
2023/03/26 06:13:04;;;;;;;15.05;2.70;;;;;;;6.42;100.00;100021.16;4932377;28;20031;-75
2023/03/26 06:15:29;;;;;;;19.10;3.65;;;;;;;6.48;100.00;100019.75;5010536;28;20038;-75
2023/03/26 06:17:59;;;;;;;21.50;2.97;;;;;;;6.45;100.00;100013.13;4956971;28;20043;-75
2023/03/26 06:20:43;;;;;;;19.15;3.70;;;;;;;6.50;100.00;100016.09;4940930;28;20043;-75
2023/03/26 06:23:24;;;;;;;18.65;3.25;;;;;;;6.57;100.00;100011.13;5028769;28;20632;-75
2023/03/26 06:26:08;;;;;;;25.23;2.80;;;;;;;6.62;100.00;100009.72;4994982;28;20520;-76
2023/03/26 06:28:52;;;;;;;14.75;2.28;;;;;;;6.61;100.00;99999.56;4951933;28;20050;-76
2023/03/26 06:31:33;;;;;;;33.67;3.60;;;;;;;6.66;100.00;99996.56;4938426;28;20043;-76
2023/03/26 06:34:22;;;;;;;17.15;2.55;;;;;;;6.61;100.00;99990.09;4951374;28;20401;-75
2023/03/26 06:36:48;;;;;;;15.63;3.47;;;;;;;6.56;100.00;99994.06;4952140;28;20039;-75
2023/03/26 06:39:14;;;;;;;17.02;2.80;;;;;;;6.74;100.00;99991.44;4950547;28;20024;-74
2023/03/26 06:41:49;;;;;;;15.02;3.08;;;;;;;6.69;100.00;99996.25;4943833;28;20042;-75
2023/03/26 06:44:44;;;;;;;17.38;2.63;;;;;;;6.78;100.00;99991.00;4948578;28;20069;-75
2023/03/26 06:47:32;;;;;;;10.20;2.15;;;;;;;6.68;100.00;99990.28;4933559;28;20089;-78
2023/03/26 06:50:17;;;;;;;21.05;2.70;;;;;;;6.58;100.00;99984.44;4953142;28;20050;-75
2023/03/26 06:53:09;;;;;;;17.13;2.72;;;;;;;6.65;100.00;99988.03;4942911;28;20062;-76
2023/03/26 06:55:44;;;;;;;17.65;2.83;;;;;;;6.64;100.00;99986.41;4946800;28;20031;-76
2023/03/26 06:58:19;;;;;;;19.23;4.28;;;;;;;6.55;100.00;99980.38;4957722;28;20089;-76
2023/03/26 07:01:03;;;;;;;25.58;3.80;;;;;;;6.62;100.00;99980.59;4947553;28;20555;-76
2023/03/26 07:03:47;;;;;;;24.80;4.63;;;;;;;6.65;100.00;99985.44;5002712;28;20117;-76
2023/03/26 07:06:31;;;;;;;12.63;2.78;;;;;;;6.60;100.00;99978.16;4944629;28;20516;-77
2023/03/26 07:09:34;;;;;;;;;;;;;;;6.64;100.00;99986.41;4959583;28;20101;-76
2023/03/26 07:12:22;;;;;;;16.10;3.42;;;;;;;6.63;100.00;99975.28;4884740;28;20365;-77
2023/03/26 07:15:14;;;;;;;15.25;3.10;;;;;;;6.72;100.00;99976.13;4957387;28;20062;-77
2023/03/26 07:18:03;;;;;;;10.50;2.70;;;;;;;6.68;100.00;99969.66;4984920;28;20103;-76
2023/03/26 07:20:32;;;;;;;20.63;2.95;;;;;;;6.62;100.00;99967.69;4948293;28;20038;-76
2023/03/26 07:22:58;;;;;;;14.73;3.22;;;;;;;6.63;100.00;99964.97;4937044;28;20035;-76
2023/03/26 07:25:51;;;;;;;16.83;4.07;;;;;;;6.65;100.00;99972.56;4964906;28;20036;-78
2023/03/26 07:28:46;;;;;;;10.55;2.70;;;;;;;6.69;100.00;99970.50;4995696;28;20054;-75
2023/03/26 07:31:53;;;;;;;21.17;3.83;;;;;;;6.77;100.00;99965.41;4949178;28;20062;-76
2023/03/26 07:35:06;;;;;;;15.48;3.50;;;;;;;6.87;100.00;99968.66;4946394;28;20146;-76
2023/03/26 07:38:18;;;;;;;19.10;3.45;;;;;;;6.83;100.00;99957.03;4934486;28;20052;-75
2023/03/26 07:41:29;;;;;;;23.05;4.13;;;;;;;6.76;100.00;99946.56;4956509;28;20032;-76
2023/03/26 07:44:26;;;;;;;11.35;3.22;;;;;;;6.83;100.00;99950.13;4949633;28;20045;-77
2023/03/26 07:47:34;;;;;;;19.63;3.55;;;;;;;6.91;100.00;99938.25;4951481;28;20066;-75
2023/03/26 07:50:20;;;;;;;11.20;3.45;;;;;;;6.97;100.00;99945.38;4967604;28;20063;-76
2023/03/26 07:53:10;;;;;;;9.27;3.17;;;;;;;6.94;100.00;99943.91;4954914;28;20031;-76
2023/03/26 07:56:14;;;;;;;14.43;3.45;;;;;;;6.95;100.00;99934.38;4946721;28;20054;-77
2023/03/26 07:59:23;;;;;;;19.02;2.88;;;;;;;6.90;100.00;99941.78;4948397;28;20061;-77
2023/03/26 08:02:43;;;;;;;16.55;3.47;;;;;;;6.96;100.00;99936.81;4950332;28;20117;-76
2023/03/26 08:05:55;;;;;;;11.63;2.90;;;;;;;6.87;100.00;99937.72;4944662;28;20127;-76
2023/03/26 08:08:44;;;;;;;16.02;3.22;;;;;;;6.87;100.00;99936.94;4971873;28;20079;-76
2023/03/26 08:11:57;;;;;;;13.23;3.25;;;;;;;6.95;100.00;99935.22;4964129;28;20186;-76
2023/03/26 08:14:32;;;;;;;19.88;3.47;;;;;;;6.96;100.00;99930.88;4966330;28;20034;-76
2023/03/26 08:17:27;;;;;;;14.60;4.32;;;;;;;6.99;100.00;99933.94;4946248;28;20096;-76
2023/03/26 08:20:20;;;;;;;10.63;3.53;;;;;;;6.94;100.00;99932.78;4941712;28;20031;-77
2023/03/26 08:22:50;;;;;;;22.23;4.47;;;;;;;6.93;100.00;99929.41;4941386;28;20077;-77
2023/03/26 08:25:26;;;;;;;19.42;3.70;;;;;;;7.04;100.00;99923.16;4949478;28;20050;-77
2023/03/26 08:28:16;;;;;;;13.35;3.20;;;;;;;7.04;100.00;99925.75;4967816;28;20709;-77
2023/03/26 08:30:42;;;;;;;15.20;3.80;;;;;;;7.04;100.00;99928.31;4929097;28;20047;-77
2023/03/26 08:33:10;;;;;;;15.73;3.72;;;;;;;7.00;100.00;99927.00;4947787;28;20093;-76
2023/03/26 08:35:40;;;;;;;20.67;5.95;;;;;;;6.98;100.00;99922.00;5026258;28;20039;-75
2023/03/26 08:38:11;;;;;;;25.48;4.60;;;;;;;6.96;100.00;99923.13;4924100;28;20567;-78
2023/03/26 08:41:04;;;;;;;18.95;4.47;;;;;;;7.04;100.00;99918.00;4946786;28;20039;-77
2023/03/26 08:43:32;;;;;;;22.33;4.75;;;;;;;7.03;100.00;99924.13;4928282;28;20077;-76
2023/03/26 08:46:23;;;;;;;15.50;3.38;;;;;;;6.97;100.00;99911.88;4925913;28;20127;-76
2023/03/26 08:49:09;;;;;;;20.70;3.90;;;;;;;6.97;100.00;99912.69;4931238;28;20040;-76
2023/03/26 08:52:02;;;;;;;11.50;4.53;;;;;;;6.99;100.00;99915.09;4957542;28;20039;-78
2023/03/26 08:54:47;;;;;;;17.25;5.35;;;;;;;7.09;100.00;99909.81;4932676;28;20133;-77
2023/03/26 08:57:28;;;;;;;21.33;5.03;;;;;;;7.09;100.00;99910.63;4927666;28;20036;-76
2023/03/26 09:00:11;;;;;;;15.07;4.65;;;;;;;7.07;100.00;99917.72;4944762;28;20062;-76
2023/03/26 09:03:15;;;;;;;15.25;5.15;;;;;;;7.12;100.00;99906.91;4935016;28;20038;-77
2023/03/26 09:06:00;;;;;;;18.13;4.35;;;;;;;7.08;100.00;99897.88;4949630;28;20105;-77
2023/03/26 09:08:53;;;;;;;16.13;4.55;;;;;;;7.14;100.00;99905.00;4940589;28;20398;-77
2023/03/26 09:11:32;;;;;;;19.42;6.05;;;;;;;7.12;100.00;99907.75;4947416;28;20038;-77
2023/03/26 09:14:16;;;;;;;20.52;4.13;;;;;;;7.15;100.00;99904.84;4947717;28;20398;-76
2023/03/26 09:17:03;;;;;;;14.55;4.53;;;;;;;7.16;100.00;99901.31;4958647;28;20051;-77
2023/03/26 09:20:06;;;;;;;17.80;4.70;;;;;;;7.09;100.00;99895.16;4951873;28;20070;-77
2023/03/26 09:22:47;;;;;;;25.10;5.28;;;;;;;7.11;100.00;99898.38;4920788;28;20501;-79
2023/03/26 09:25:50;;;;;;;10.60;3.38;;;;;;;7.01;100.00;99889.97;4948040;28;20109;-78
2023/03/26 09:28:35;;;;;;;15.52;4.60;;;;;;;6.98;100.00;99888.50;4999815;28;20047;-76
2023/03/26 09:31:38;;;;;;;8.95;3.40;;;;;;;7.01;100.00;99887.41;4928048;28;20057;-78
2023/03/26 09:34:27;;;;;;;11.82;4.75;;;;;;;7.03;100.00;99885.47;4931195;28;20144;-77
2023/03/26 09:37:18;;;;;;;13.13;4.35;;;;;;;6.98;100.00;99880.75;4952067;28;20123;-77
2023/03/26 09:39:54;;;;;;;12.57;3.92;;;;;;;7.09;100.00;99879.69;4968683;28;20039;-77
2023/03/26 09:42:42;;;;;;;11.20;3.67;;;;;;;7.11;100.00;99879.53;4948993;28;20060;-78
2023/03/26 09:45:45;;;;;;;17.13;3.63;;;;;;;7.06;100.00;99874.84;5011786;28;20035;-77
2023/03/26 09:48:44;;;;;;;11.55;3.08;;;;;;;7.09;100.00;99877.09;4964007;28;20405;-78
2023/03/26 09:51:41;;;;;;;14.88;2.85;;;;;;;7.04;100.00;99865.66;4934223;28;20039;-77
2023/03/26 09:54:45;;;;;;;19.40;3.47;;;;;;;7.05;100.00;99864.69;4927046;28;20093;-77
2023/03/26 09:57:53;;;;;;;10.32;2.63;;;;;;;6.98;100.00;99864.50;4935974;28;20035;-77
2023/03/26 10:00:42;;;;;;;9.82;2.47;;;;;;;6.99;100.00;99866.13;4954163;28;20032;-77
2023/03/26 10:03:36;;;;;;;16.92;1.95;;;;;;;7.01;100.00;99865.00;4947665;28;20027;-77
2023/03/26 10:06:28;;;;;;;10.85;1.75;;;;;;;6.95;100.00;99862.22;4940332;28;20036;-77
2023/03/26 10:09:28;;;;;;;11.18;1.73;;;;;;;6.97;100.00;99860.31;4947236;28;20023;-79
2023/03/26 10:12:21;;;;;;;11.30;1.85;;;;;;;7.07;100.00;99858.41;4953002;28;20118;-77
2023/03/26 10:15:22;;;;;;;6.43;1.80;;;;;;;7.03;100.00;99854.53;5014881;28;20049;-77
2023/03/26 10:17:47;;;;;;;9.80;2.45;;;;;;;7.03;100.00;99851.97;4957062;28;20406;-77
2023/03/26 10:20:37;;;;;;;8.15;1.70;;;;;;;6.96;100.00;99846.59;4957311;28;20066;-77
2023/03/26 10:23:12;;;;;;;2.40;1.05;;;;;;;6.90;100.00;99849.00;4947009;28;20049;-77
2023/03/26 10:25:57;;;;;;;3.75;1.08;;;;;;;6.94;100.00;99845.97;4939465;28;20486;-80
2023/03/26 10:28:41;;;;;;;8.90;1.70;;;;;;;7.05;100.00;99841.50;4951203;28;20046;-77
2023/03/26 10:31:46;;;;;;;7.70;0.80;;;;;;;7.01;100.00;99841.81;4949548;28;20046;-77
2023/03/26 10:34:43;;;;;;;3.28;1.17;;;;;;;7.16;100.00;99844.59;4945374;28;20116;-77
2023/03/26 10:37:23;;;;;;;7.05;1.55;;;;;;;7.24;100.00;99836.06;4944879;28;20494;-77
2023/03/26 10:40:46;;;;;;;2.97;0.88;;;;;;;7.37;100.00;99841.56;4974987;28;20100;-76
2023/03/26 10:43:48;;;;;;;4.05;1.20;;;;;;;7.37;100.00;99833.84;4953997;28;20035;-77
2023/03/26 10:46:23;;;;;;;2.20;1.00;;;;;;;7.34;100.00;99836.72;4971164;28;20050;-77
2023/03/26 10:49:34;;;;;;;3.05;1.27;;;;;;;7.40;100.00;99830.13;4955358;28;20047;-76
2023/03/26 10:52:03;;;;;;;3.03;1.27;;;;;;;7.44;100.00;99833.19;4930776;28;20453;-77
2023/03/26 10:54:55;;;;;;;2.70;1.02;;;;;;;7.57;100.00;99833.53;4961464;28;20051;-77
2023/03/26 10:58:03;;;;;;;6.70;1.73;;;;;;;7.64;100.00;99829.34;4945904;28;20489;-76
2023/03/26 11:00:29;;;;;;;4.53;1.35;;;;;;;7.70;100.00;99835.66;4990739;28;20041;-76
2023/03/26 11:03:30;;;;;;;5.43;1.38;;;;;;;7.78;100.00;99838.25;5009107;28;20121;-76
2023/03/26 11:06:05;;;;;;;5.57;1.50;;;;;;;7.77;100.00;99834.84;4966315;28;20036;-77
2023/03/26 11:08:47;;;;;;;10.57;1.45;;;;;;;7.74;100.00;99827.44;4959628;28;20050;-76
2023/03/26 11:11:23;;;;;;;6.95;2.60;;;;;;;7.72;100.00;99828.53;4951510;28;20404;-77
2023/03/26 11:14:18;;;;;;;9.40;1.77;;;;;;;7.57;100.00;99830.94;4951073;28;20043;-76
2023/03/26 11:17:02;;;;;;;4.82;1.40;;;;;;;7.58;100.00;99832.59;4957157;28;20036;-76
2023/03/26 11:19:51;;;;;;;3.42;1.05;;;;;;;7.71;100.00;99830.31;5027926;28;20050;-75
2023/03/26 11:22:35;;;;;;;1.58;0.75;;;;;;;7.70;100.00;99830.47;4947108;28;20074;-77
2023/03/26 11:25:33;;;;;;;14.15;4.82;;;;;;;7.77;100.00;99831.47;4961025;28;20084;-76
2023/03/26 11:28:08;;;;;;;4.05;1.00;;;;;;;7.89;100.00;99832.75;4987054;28;20039;-76
2023/03/26 11:30:41;;;;;;;5.72;1.17;;;;;;;7.98;100.00;99829.19;4941359;28;20039;-76
2023/03/26 11:33:15;;;;;;;3.55;0.95;;;;;;;8.04;100.00;99825.16;4939157;28;20051;-76
2023/03/26 11:35:46;;;;;;;2.17;0.90;;;;;;;8.01;100.00;99825.50;4946746;28;20595;-77
2023/03/26 11:38:25;;;;;;;5.05;1.08;;;;;;;7.98;100.00;99825.81;4950601;28;20516;-77
2023/03/26 11:40:55;;;;;;;8.23;1.20;;;;;;;7.94;100.00;99824.53;4930664;28;20043;-77
2023/03/26 11:44:02;;;;;;;2.67;0.93;;;;;;;7.98;100.00;99818.84;4977944;28;20068;-76
2023/03/26 11:46:30;;;;;;;6.68;1.08;;;;;;;8.04;100.00;99819.97;4973252;28;20048;-76
2023/03/26 11:49:02;;;;;;;5.80;1.23;;;;;;;8.14;100.00;99825.78;4946760;28;20035;-76
2023/03/26 11:51:33;;;;;;;5.32;1.20;;;;;;;8.04;100.00;99824.34;4929649;28;20947;-74
2023/03/26 11:54:00;;;;;;;3.17;1.00;;;;;;;7.95;100.00;99823.56;4946193;28;20031;-76
2023/03/26 11:56:48;;;;;;;5.07;1.02;;;;;;;7.88;100.00;99818.22;4940600;28;20491;-76
2023/03/26 11:59:19;;;;;;;4.03;0.73;;;;;;;7.80;100.00;99833.72;4941446;28;20035;-75
2023/03/26 12:01:56;;;;;;;3.10;0.90;;;;;;;7.69;100.00;99834.03;4951941;28;20985;-76
2023/03/26 12:04:45;;;;;;;4.00;1.30;;;;;;;7.64;100.00;99829.34;4947359;28;20031;-77
2023/03/26 12:07:19;;;;;;;1.70;0.60;;;;;;;7.63;100.00;99835.50;4967522;28;20055;-77
2023/03/26 12:10:19;;;;;;;4.18;1.10;;;;;;;7.67;100.00;99835.97;4947344;28;20039;-76
2023/03/26 12:12:46;;;;;;;4.25;1.02;;;;;;;7.64;100.00;99833.72;4931066;28;20035;-76
2023/03/26 12:15:19;;;;;;;3.80;1.10;;;;;;;7.67;100.00;99838.56;4942993;28;20051;-76
2023/03/26 12:17:47;;;;;;;2.58;0.80;;;;;;;7.60;100.00;99833.22;4947505;28;20032;-76